Jepson Prairie Reserve, California Weather observations

Data are for 10 minute period ending at time listed.
 Day   Time   Solar   Ave.   Ave.  Ave.  Vector  Max.   Baro.   Total    
  of    of     Rad.   Air    Rel.  Wind   Wind   Wind  Press.  Precip.   
Year   Day            Temp.  Hum.  Speed  Dir.   Gust                    
2015   (PST)  Kw/m2    F      %     mph   deg.    mph    mb.     in.     
-------------------------------------------------------------------------
 186   12:10   0.93   77.8    50   29.4   217    35.9   1009.8    0.00 
 186   12:20   0.94   78.4    49   28.9   219    36.5   1009.8    0.00 
 186   12:30   0.77   78.2    50   29.4   216    37.0   1009.8    0.00 
 186   12:40   0.71   77.3    51   29.5   218    35.9   1009.8    0.00 
 186   12:50   0.91   78.7    49   29.4   219    35.5   1009.8    0.00 
 186   13:00   0.95   79.6    48   30.8   221    36.6   1009.5    0.00 
 186   13:10   0.92   79.7    48   30.5   224    35.8   1009.5    0.00 
 186   13:20   0.91   79.8    47   31.6   222    38.0   1009.1    0.00 
 186   13:30   0.89   80.5    46   30.0   219    37.5   1009.1    0.00 
 186   13:40   0.88   80.7    46   30.3   221    36.5   1009.1    0.00 
 186   13:50   0.87   81.1    46   29.8   220    34.8   1008.8    0.00 
 186   14:00   0.85   81.1    46   29.3   221    35.4   1008.8    0.00 
 186   14:10   0.84   80.9    46   30.6   218    36.2   1008.8    0.00 
 186   14:20   0.83   81.9    45   29.1   220    35.6   1008.5    0.00 
 186   14:30   0.77   81.5    46   29.3   219    36.8   1008.5    0.00 
 186   14:40   0.79   81.3    46   30.7   216    37.1   1008.5    0.00 
 186   14:50   0.71   81.3    46   31.1   218    37.9   1008.1    0.00 
 186   15:00   0.76   81.3    46   31.9   217    38.4   1008.1    0.00 
 186   15:10   0.74   80.8    46   31.0   222    38.6   1008.1    0.00 
 186   15:20   0.68   80.3    47   32.3   222    39.2   1008.1    0.00 
 186   15:30   0.62   79.4    48   31.8   224    39.8   1008.1    0.00 
 186   15:40   0.64   78.3    50   32.4   218    41.4   1008.1    0.00 
 186   15:50   0.58   77.3    51   34.0   221    41.4   1007.8    0.00 
 186   16:00   0.59   76.9    52   34.3   219    40.5   1007.8    0.00 
 186   16:10   0.55   76.8    52   33.3   221    40.4   1008.1    0.00 
 186   16:20   0.52   77.5    51   31.7   217    40.4   1007.8    0.00 
 186   16:30   0.47   77.7    51   32.1   216    38.9   1007.8    0.00 
 186   16:40   0.46   77.5    51   31.1   214    39.6   1007.8    0.00 
 186   16:50   0.43   77.0    51   31.8   218    39.8   1007.8    0.00 
 186   17:00   0.38   76.9    50   31.5   220    38.7   1008.1    0.00 
 186   17:10   0.34   76.7    50   30.7   222    42.7   1008.1    0.00 
 186   17:20   0.34   76.8    49   30.8   220    40.8   1007.8    0.00 
 186   17:30   0.30   76.2    50   31.9   220    39.0   1007.8    0.00 
 186   17:40   0.28   75.7    50   31.8   219    40.0   1008.1    0.00 
 186   17:50   0.24   75.5    50   30.0   223    38.5   1008.1    0.00 
 186   18:00   0.17   74.5    52   30.5   219    37.7   1008.1    0.00 
 186   18:10   0.14   74.2    52   29.5   220    37.6   1008.5    0.00 
 186   18:20   0.11   73.8    53   29.8   221    37.8   1008.5    0.00 
 186   18:30   0.13   73.6    54   29.1   221    36.8   1008.5    0.00 
 186   18:40   0.10   72.6    59   29.9   217    37.5   1008.5    0.00 
 186   18:50   0.07   71.5    62   29.1   216    35.6   1008.8    0.00 
 186   19:00   0.06   70.5    64   28.8   218    37.4   1008.8    0.00 
 186   19:10   0.04   69.6    66   27.7   220    33.8   1009.1    0.00 
 186   19:20   0.02   68.9    68   26.0   219    32.3   1009.5    0.00 
 186   19:30   0.01   68.3    69   25.4   219    32.0   1009.5    0.00 
 186   19:40   0.00   67.6    70   24.7   222    33.2   1009.5    0.00 
 186   19:50   0.00   67.0    69   25.5   223    32.3   1009.8    0.00 
 186   20:00   0.00   66.4    70   28.0   222    35.8   1009.8    0.00 
 186   20:10   0.00   65.7    72   27.9   221    34.3   1009.8    0.00 
 186   20:20   0.00   64.9    74   25.5   222    32.3   1009.8    0.00 
 186   20:30   0.00   64.5    75   26.1   220    34.7   1010.2    0.00 
 186   20:40   0.00   64.2    76   22.9   222    30.3   1010.5    0.00 
 186   20:50   0.00   63.8    77   23.9   222    31.4   1010.5    0.00 
 186   21:00   0.00   63.6    78   24.1   221    31.6   1010.8    0.00 
 186   21:10   0.00   63.2    78   25.9   219    31.9   1010.8    0.00 
 186   21:20   0.00   63.0    79   29.4   217    37.6   1010.8    0.00 
 186   21:30   0.00   62.8    80   28.0   218    34.6   1010.8    0.00 
 186   21:40   0.00   62.7    80   28.4   216    35.7   1010.8    0.00 
 186   21:50   0.00   62.3    81   25.5   218    33.9   1010.8    0.00 
 186   22:00   0.00   62.1    81   27.5   216    34.5   1010.5    0.00 
 186   22:10   0.00   61.8    82   27.7   216    33.9   1010.8    0.00 
 186   22:20   0.00   61.4    82   26.5   215    33.0   1010.8    0.00 
 186   22:30   0.00   61.2    83   25.9   218    32.8   1011.2    0.00 
 186   22:40   0.00   60.9    83   25.5   217    31.3   1011.2    0.00 
 186   22:50   0.00   60.8    84   27.2   214    34.3   1011.2    0.00 
 186   23:00   0.00   60.8    84   27.8   212    34.3   1011.2    0.00 
 186   23:10   0.00   60.7    84   28.7   214    35.7   1011.5    0.00 
 186   23:20   0.00   60.5    84   28.7   215    34.1   1011.5    0.00 
 186   23:30   0.00   60.4    85   28.6   215    37.6   1011.5    0.00 
 186   23:40   0.00   60.4    85   29.0   215    34.8   1011.5    0.00 
 186   23:50   0.00   60.4    85   29.1   215    35.4   1011.5    0.00 
 187    0:00   0.00   60.4    85   27.4   217    34.2   1011.5    0.00 
 187    0:10   0.00   60.5    85   28.8   218    34.4   1011.5    0.00 
 187    0:20   0.00   60.4    85   29.5   220    36.9   1011.5    0.00 
 187    0:30   0.00   60.4    85   28.6   220    34.0   1011.9    0.00 
 187    0:40   0.00   60.3    86   28.0   220    34.8   1011.9    0.00 
 187    0:50   0.00   60.1    86   27.6   219    33.9   1011.9    0.00 
 187    1:00   0.00   59.7    86   30.9   219    37.8   1011.5    0.00 
 187    1:10   0.00   59.6    86   30.0   220    36.8   1011.5    0.00 
 187    1:20   0.00   59.4    86   28.3   223    38.4   1011.9    0.00 
 187    1:30   0.00   59.2    86   27.3   223    33.7   1011.9    0.00 
 187    1:40   0.00   59.2    87   27.8   221    37.0   1011.9    0.00 
 187    1:50   0.00   59.2    86   30.1   221    37.6   1011.5    0.00 
 187    2:00   0.00   59.2    86   28.9   222    36.5   1011.9    0.00 
 187    2:10   0.00   59.2    86   30.0   222    36.8   1011.9    0.00 
 187    2:20   0.00   59.2    86   28.7   224    36.5   1011.9    0.00 
 187    2:30   0.00   59.2    87   27.8   225    35.2   1011.9    0.00 
 187    2:40   0.00   59.1    87   28.0   222    36.6   1011.9    0.00 
 187    2:50   0.00   58.9    87   29.0   222    36.7   1011.9    0.00 
 187    3:00   0.00   58.8    88   28.2   222    36.2   1011.9    0.00 
 187    3:10   0.00   58.7    88   30.1   222    38.7   1011.9    0.00 
 187    3:20   0.00   58.7    88   29.4   222    38.1   1011.9    0.00 
 187    3:30   0.00   58.7    87   31.3   221    41.9   1011.9    0.00 
 187    3:40   0.00   58.7    87   31.6   222    39.2   1011.9    0.00 
 187    3:50   0.00   58.6    87   30.5   222    40.1   1012.2    0.00 
 187    4:00   0.00   58.4    88   29.3   220    38.7   1012.2    0.00 
 187    4:10   0.00   58.3    88   30.6   218    39.6   1012.2    0.00 
 187    4:20   0.00   58.3    88   30.0   218    37.8   1012.5    0.00 
 187    4:30   0.00   58.3    88   30.1   217    38.2   1012.5    0.00 
 187    4:40   0.00   58.3    88   30.0   218    38.7   1012.5    0.00 
 187    4:50   0.00   58.3    87   31.2   219    39.3   1012.5    0.00 
 187    5:00   0.01   58.4    87   31.8   219    39.6   1012.9    0.00 
 187    5:10   0.02   58.6    87   31.2   218    40.3   1012.9    0.00 
 187    5:20   0.04   58.7    86   30.4   219    38.3   1012.9    0.00 
 187    5:30   0.06   58.7    86   31.1   219    40.4   1013.2    0.00 
 187    5:40   0.09   58.9    86   30.8   221    38.5   1013.2    0.00 
 187    5:50   0.11   59.2    85   30.4   221    39.4   1013.5    0.00 
 187    6:00   0.14   59.5    83   28.9   221    39.4   1013.5    0.00 
 187    6:10   0.17   59.8    82   30.7   220    39.4   1013.5    0.00 
 187    6:20   0.20   59.9    82   31.3   220    40.5   1013.9    0.00 
 187    6:30   0.23   60.3    81   30.1   223    36.7   1014.2    0.00 
 187    6:40   0.27   60.8    80   29.0   224    36.2   1014.2    0.00 
 187    6:50   0.32   61.2    78   30.1   222    38.5   1014.2    0.00 
 187    7:00   0.38   61.7    77   31.3   219    37.0   1013.9    0.00 
 187    7:10   0.46   62.3    76   31.8   216    37.8   1013.9    0.00 
 187    7:20   0.52   63.0    73   31.9   218    38.7   1014.2    0.00 
 187    7:30   0.46   63.0    74   29.6   216    37.2   1014.2    0.00 
 187    7:40   0.26   62.0    76   29.9   217    36.8   1014.6    0.00 
 187    7:50   0.39   62.2    76   29.6   214    36.1   1014.6    0.00 
 187    8:00   0.54   63.3    73   27.9   217    34.4   1014.6    0.00 
 187    8:10   0.42   63.5    73   27.9   219    35.4   1014.6    0.00 
 187    8:20   0.24   62.8    74   26.1   220    34.2   1014.9    0.00 
 187    8:30   0.63   64.8    69   29.5   220    35.5   1014.6    0.00 
 187    8:40   0.66   66.8    64   25.8   221    33.3   1014.9    0.00 
 187    8:50   0.71   67.5    63   26.8   223    33.8   1014.9    0.00 
 187    9:00   0.71   68.0    60   28.0   225    33.2   1014.9    0.00 
 187    9:10   0.56   68.1    60   26.6   224    33.8   1014.9    0.00 
 187    9:20   0.68   68.5    58   27.2   226    35.0   1014.6    0.00 
 187    9:30   0.78   68.8    58   27.4   225    33.2   1014.6    0.00 
 187    9:40   0.83   70.4    55   25.8   225    32.7   1014.9    0.00 
 187    9:50   0.73   70.7    54   25.6   225    32.1   1014.6    0.00 
 187   10:00   0.80   71.4    52   24.6   223    30.2   1014.9    0.00 
 187   10:10   0.90   71.9    51   25.0   226    30.2   1014.6    0.00 
 187   10:20   0.90   72.9    50   24.3   225    30.2   1014.6    0.00 
 187   10:30   0.90   73.3    49   23.5   225    29.5   1014.6    0.00 
 187   10:40   0.88   74.1    48   23.0   221    27.1   1014.2    0.00 
 187   10:50   0.93   74.8    47   22.9   220    27.0   1014.2    0.00 
 187   11:00   0.97   75.1    47   22.5   220    28.0   1014.2    0.00 
 187   11:10   0.53   74.6    47   21.6   216    28.1   1014.2    0.00 
 187   11:20   0.89   75.1    46   22.9   221    27.0   1013.9    0.00 
 187   11:30   0.87   77.4    43   22.9   219    28.4   1013.9    0.00 
 187   11:40   0.81   77.9    42   22.8   216    28.7   1013.5    0.00 
 187   11:50   0.37   77.4    41   21.2   214    27.8   1013.5    0.00 
 187   12:00   0.95   79.1    39   23.7   212    30.4   1013.5    0.00 

Return to Jepson Prairie Reserve graphs page.


Western Regional Climate Center,wrcc@dri.edu